Time;durP1;ratioP1;P1;durP2;ratioP2;P2;SDS_P1;SDS_P2;PMS_P1;PMS_P2;Temp;Humidity;BMP_temperature;BMP_pressure;BME280_temperature;BME280_humidity;BME280_pressure;Samples;Min_cycle;Max_cycle;Signal;HPM_P1;HPM_P2
2024/02/20 00:01:04;;;;;;;;;0.00;0.00;;;;;12.12;100.00;102918.31;5078717;28;45396;-87
2024/02/20 00:03:30;;;;;;;;;0.00;0.00;;;;;12.08;100.00;102917.44;5078204;28;62200;-88
2024/02/20 00:05:55;;;;;;;;;0.00;0.00;;;;;12.11;100.00;102921.78;5079155;27;60151;-88
2024/02/20 00:08:20;;;;;;;;;0.00;0.00;;;;;12.06;100.00;102915.72;5095625;27;45361;-89
2024/02/20 00:10:46;;;;;;;;;0.00;0.00;;;;;12.08;100.00;102916.59;5078602;28;48295;-88
2024/02/20 00:13:12;;;;;;;;;0.00;0.00;;;;;12.04;100.00;102920.94;5078445;28;45378;-88
2024/02/20 00:15:37;;;;;;;;;0.00;0.00;;;;;12.04;100.00;102917.47;5078413;28;46081;-88
2024/02/20 00:18:03;;;;;;;;;0.00;0.00;;;;;12.03;100.00;102913.09;5077465;28;49725;-88
2024/02/20 00:20:28;;;;;;;;;0.00;0.00;;;;;12.01;100.00;102915.72;5078515;28;45375;-88
2024/02/20 00:22:54;;;;;;;;;0.00;0.00;;;;;11.97;100.00;102909.63;5095144;27;63820;-88
2024/02/20 00:25:19;;;;;;;;;0.00;0.00;;;;;12.00;100.00;102917.47;5079264;27;46982;-88
2024/02/20 00:27:45;;;;;;;;;0.00;0.00;;;;;12.04;100.00;102927.91;5078143;28;45312;-88
2024/02/20 00:30:11;;;;;;;;;0.00;0.00;;;;;12.00;100.00;102924.44;5078591;27;45401;-88
2024/02/20 00:32:36;;;;;;;;;0.00;0.00;;;;;11.99;100.00;102936.59;5078309;28;45844;-88
2024/02/20 00:35:02;;;;;;;;;0.00;0.00;;;;;11.94;100.00;102927.00;5078038;28;47028;-89
2024/02/20 00:37:27;;;;;;;;;0.00;0.00;;;;;11.95;100.00;102936.59;5079145;27;45375;-89
2024/02/20 00:39:54;;;;;;;;;0.00;0.00;;;;;11.93;100.00;102928.75;5077416;28;62092;-88
2024/02/20 00:42:19;;;;;;;;;0.00;0.00;;;;;11.95;100.00;102934.00;5077755;28;45584;-88
2024/02/20 00:44:44;;;;;;;;;0.00;0.00;;;;;11.96;100.00;102939.22;5078133;28;47094;-88
2024/02/20 00:47:10;;;;;;;;;0.00;0.00;;;;;11.89;100.00;102949.63;5060126;28;70698;-88
2024/02/20 00:49:38;;;;;;;;;0.00;0.00;;;;;11.88;100.00;102947.88;5091643;27;45296;-88
2024/02/20 00:52:04;;;;;;;;;0.00;0.00;;;;;11.85;100.00;102937.41;5058838;28;45568;-88
2024/02/20 00:54:29;;;;;;;;;0.00;0.00;;;;;11.81;100.00;102926.09;5040570;28;47192;-88
2024/02/20 00:56:55;;;;;;;;;0.00;0.00;;;;;11.77;100.00;102911.31;5058691;28;45352;-88
2024/02/20 00:59:20;;;;;;;;;0.00;0.00;;;;;11.73;100.00;102907.84;5092028;27;45697;-88
2024/02/20 01:01:47;;;;;;;;;0.00;0.00;;;;;11.73;100.00;102922.63;5091085;27;57947;-88
2024/02/20 01:04:12;;;;;;;;;0.00;0.00;;;;;11.69;100.00;102929.56;5040654;28;47540;-88
2024/02/20 01:06:38;;;;;;;;;0.00;0.00;;;;;11.74;100.00;102933.06;5091059;27;52033;-88
2024/02/20 01:09:04;;;;;;;;;0.00;0.00;;;;;11.77;100.00;102942.63;5058428;28;45565;-88
2024/02/20 01:11:30;;;;;;;;;0.00;0.00;;;;;11.79;100.00;102946.09;5058529;28;47789;-88
2024/02/20 01:13:55;;;;;;;;;0.00;0.00;;;;;11.74;100.00;102934.81;5058278;28;47011;-88
2024/02/20 01:16:21;;;;;;;;;0.00;0.00;;;;;11.73;100.00;102931.31;5091078;27;45279;-88
2024/02/20 01:18:46;;;;;;;;;0.00;0.00;;;;;11.70;100.00;102922.63;5057020;28;55846;-88
2024/02/20 01:21:11;;;;;;;;;0.00;0.00;;;;;11.71;100.00;102934.81;5057338;28;50746;-88
2024/02/20 01:23:37;;;;;;;;;4.00;4.00;;;;;11.68;100.00;102925.25;5056836;28;46467;-88
2024/02/20 01:26:03;;;;;;;;;1.00;1.00;;;;;11.70;100.00;102935.66;5074388;27;45263;-88
2024/02/20 01:28:29;;;;;;;;;0.00;0.00;;;;;11.71;100.00;102942.63;5057250;28;45406;-88
2024/02/20 01:30:54;;;;;;;;;0.00;0.00;;;;;11.68;100.00;102933.06;5057777;28;45469;-88
2024/02/20 01:33:21;;;;;;;;;0.00;0.00;;;;;11.62;100.00;102931.28;5048491;28;46686;-88
2024/02/20 01:35:46;;;;;;;;;0.00;0.00;;;;;11.62;100.00;102927.81;5071456;28;52470;-89
2024/02/20 01:38:12;;;;;;;;;0.00;0.00;;;;;11.65;100.00;102933.06;5072087;28;53345;-88
2024/02/20 01:40:38;;;;;;;;;0.00;0.00;;;;;11.58;100.00;102920.88;5089638;28;44969;-88
2024/02/20 01:43:04;;;;;;;;;0.00;0.00;;;;;11.66;100.00;102926.94;5070115;28;45483;-88
2024/02/20 01:45:31;;;;;;;;;0.00;0.00;;;;;11.61;100.00;102926.97;5060925;28;45346;-89
2024/02/20 01:48:00;;;;;;;;;0.00;0.00;;;;;11.62;100.00;102933.91;5043688;28;45410;-88
2024/02/20 01:50:26;;;;;;;;;0.00;0.00;;;;;11.63;100.00;102937.41;5069267;28;45345;-88
2024/02/20 01:52:52;;;;;;;;;0.00;0.00;;;;;11.63;100.00;102943.47;5077692;27;47389;-88
2024/02/20 01:55:20;;;;;;;;;0.00;0.00;;;;;11.65;100.00;102938.28;5078340;28;45370;-88
2024/02/20 01:57:45;;;;;;;;;0.00;0.00;;;;;11.63;100.00;102935.66;5077945;28;45250;-89
2024/02/20 02:00:11;;;;;;;;;0.00;0.00;;;;;11.62;100.00;102940.88;5078828;27;45228;-89
2024/02/20 02:02:37;;;;;;;;;0.00;0.00;;;;;11.62;100.00;102944.34;5077049;28;46453;-88
2024/02/20 02:05:03;;;;;;;;;0.00;0.00;;;;;11.62;100.00;102943.47;5077307;27;45383;-88
2024/02/20 02:07:28;;;;;;;;;0.00;0.00;;;;;11.63;100.00;102937.41;5076941;27;45289;-89
2024/02/20 02:09:54;;;;;;;;;0.00;0.00;;;;;11.70;100.00;102938.25;5077290;28;45360;-89
2024/02/20 02:12:19;;;;;;;;;0.00;0.00;;;;;11.76;100.00;102931.31;5094021;27;55312;-88
2024/02/20 02:14:47;;;;;;;;;0.00;0.00;;;;;11.86;100.00;102926.13;5076864;28;56043;-88
2024/02/20 02:17:14;;;;;;;;;0.75;0.75;;;;;11.90;100.00;102930.50;5078082;28;45364;-88
2024/02/20 02:19:39;;;;;;;;;0.00;0.00;;;;;11.89;100.00;102933.97;5077465;28;45490;-89
2024/02/20 02:22:06;;;;;;;;;4.00;4.00;;;;;11.96;100.00;102938.31;5077315;27;46203;-89
2024/02/20 02:24:35;;;;;;;;;0.00;0.00;;;;;11.96;100.00;102936.59;5077038;28;45219;-89
2024/02/20 02:27:01;;;;;;;;;0.00;0.00;;;;;12.04;100.00;102943.56;5093930;27;45330;-88
2024/02/20 02:29:26;;;;;;;;;0.00;0.00;;;;;12.02;100.00;102933.13;5078218;27;45319;-89
2024/02/20 02:31:52;;;;;;;;;0.00;0.00;;;;;12.03;100.00;102936.59;5077489;28;51384;-88
2024/02/20 02:34:17;;;;;;;;;0.00;0.00;;;;;12.06;100.00;102932.25;5076991;28;53564;-89
2024/02/20 02:36:44;;;;;;;;;0.00;0.00;;;;;12.04;100.00;102926.16;5059483;28;57822;-89
2024/02/20 02:39:10;;;;;;;;;0.00;0.00;;;;;12.04;100.00;102930.53;5077854;27;45223;-88
2024/02/20 02:41:36;;;;;;;;;0.00;0.00;;;;;12.05;100.00;102934.84;5076162;28;46966;-89
2024/02/20 02:44:01;;;;;;;;;0.00;0.00;;;;;12.12;100.00;102944.44;5077821;27;45405;-88
2024/02/20 02:46:27;;;;;;;;;0.00;0.00;;;;;12.09;100.00;102924.44;5076060;27;65109;-90
2024/02/20 02:48:52;;;;;;;;;0.00;0.00;;;;;12.12;100.00;102932.22;5079172;27;45198;-88
2024/02/20 02:51:17;;;;;;;;;0.00;0.00;;;;;12.15;100.00;102934.00;5058580;28;64395;-88
2024/02/20 02:53:43;;;;;;;;;0.00;0.00;;;;;12.19;100.00;102948.78;5075768;28;64036;-88
2024/02/20 02:56:10;;;;;;;;;0.00;0.00;;;;;12.12;100.00;102937.47;5075867;28;56861;-89
2024/02/20 02:58:35;;;;;;;;;0.00;0.00;;;;;12.13;100.00;102938.34;5077535;28;45320;-88
2024/02/20 03:01:00;;;;;;;;;0.25;0.25;;;;;12.10;100.00;102935.72;5076027;28;46257;-88
2024/02/20 03:03:26;;;;;;;;;0.00;0.00;;;;;12.15;100.00;102941.81;5075901;28;51929;-89
2024/02/20 03:05:52;;;;;;;;;0.00;0.00;;;;;12.11;100.00;102927.00;5076445;28;45413;-89
2024/02/20 03:08:17;;;;;;;;;0.00;0.00;;;;;12.14;100.00;102921.78;5076716;28;45302;-89
2024/02/20 03:10:42;;;;;;;;;0.00;0.00;;;;;12.12;100.00;102923.53;5093058;27;48010;-89
2024/02/20 03:13:08;;;;;;;;;0.00;0.00;;;;;12.10;100.00;102912.22;5058225;28;63812;-89
2024/02/20 03:15:33;;;;;;;;;2.00;2.00;;;;;12.11;100.00;102916.56;5059155;28;45344;-88
2024/02/20 03:17:58;;;;;;;;;0.00;0.00;;;;;12.07;100.00;102913.13;5076675;28;56412;-88
2024/02/20 03:20:24;;;;;;;;;0.00;0.00;;;;;12.17;100.00;102927.03;5077245;28;68453;-88
2024/02/20 03:22:49;;;;;;;;;0.00;0.00;;;;;12.16;100.00;102917.44;5060450;28;45575;-88
2024/02/20 03:25:14;;;;;;;;;0.00;0.00;;;;;12.20;100.00;102920.06;5078493;28;45584;-89
2024/02/20 03:27:40;;;;;;;;;0.00;0.00;;;;;12.16;100.00;102915.69;5080530;27;45401;-89
2024/02/20 03:30:06;;;;;;;;;0.00;0.00;;;;;12.21;100.00;102915.69;5062482;28;47299;-89
2024/02/20 03:32:32;;;;;;;;;0.00;0.00;;;;;12.23;100.00;102913.09;5079488;28;45250;-89
2024/02/20 03:34:58;;;;;;;;;0.00;0.00;;;;;12.27;100.00;102912.22;5079649;28;45351;-88
2024/02/20 03:37:24;;;;;;;;;0.00;0.00;;;;;12.25;100.00;102903.53;5080511;28;45553;-90
2024/02/20 03:39:51;;;;;;;;;0.00;0.00;;;;;12.25;100.00;102904.38;5079240;28;45413;-88
2024/02/20 03:42:18;;;;;;;;;0.00;0.00;;;;;12.27;100.00;102907.84;5080020;28;45369;-88
2024/02/20 03:44:44;;;;;;;;;0.00;0.00;;;;;12.30;100.00;102910.47;5063634;28;45513;-89
2024/02/20 03:47:09;;;;;;;;;0.00;0.00;;;;;12.29;100.00;102903.50;5079051;28;45436;-88
2024/02/20 03:49:35;;;;;;;;;0.00;0.00;;;;;12.26;100.00;102897.41;5075512;28;45547;-89
2024/02/20 03:52:00;;;;;;;;;0.00;0.00;;;;;12.26;100.00;102894.78;5060797;28;45578;-88
2024/02/20 03:54:26;;;;;;;;;0.00;0.00;;;;;12.28;100.00;102895.69;5113207;27;45255;-89
2024/02/20 03:56:51;;;;;;;;;0.00;0.00;;;;;12.23;100.00;102892.22;5061445;28;59289;-89
2024/02/20 03:59:16;;;;;;;;;0.00;0.00;;;;;12.23;100.00;102893.06;5078176;28;68472;-88
2024/02/20 04:01:42;;;;;;;;;0.00;0.00;;;;;12.22;100.00;102885.22;5096177;27;45514;-89
2024/02/20 04:04:09;;;;;;;;;0.00;0.00;;;;;12.18;100.00;102884.38;5095851;27;45307;-89
2024/02/20 04:06:34;;;;;;;;;0.00;0.00;;;;;12.15;100.00;102879.16;5080376;27;45316;-89
2024/02/20 04:09:03;;;;;;;;;0.00;0.00;;;;;12.11;100.00;102870.47;5080210;27;45311;-88
2024/02/20 04:11:30;;;;;;;;;0.00;0.00;;;;;12.09;100.00;102871.31;5078961;28;45290;-89
2024/02/20 04:13:55;;;;;;;;;0.00;0.00;;;;;12.08;100.00;102873.06;5079390;28;45319;-89
2024/02/20 04:16:21;;;;;;;;;0.00;0.00;;;;;12.08;100.00;102872.22;5078118;28;67538;-89
2024/02/20 04:18:46;;;;;;;;;0.00;0.00;;;;;12.10;100.00;102873.06;5079865;28;51541;-89
2024/02/20 04:21:11;;;;;;;;;0.00;0.00;;;;;12.08;100.00;102860.03;5079193;28;45357;-90
2024/02/20 04:23:37;;;;;;;;;0.00;0.00;;;;;12.05;100.00;102866.97;5078170;28;66706;-89
2024/02/20 04:26:02;;;;;;;;;0.00;0.00;;;;;12.07;100.00;102863.53;5078296;28;61698;-89
2024/02/20 04:28:32;;;;;;;;;0.00;0.00;;;;;12.08;100.00;102861.78;5061168;28;56049;-89
2024/02/20 04:30:58;;;;;;;;;0.00;0.00;;;;;12.07;100.00;102860.91;5078535;28;45341;-89
2024/02/20 04:33:23;;;;;;;;;0.00;0.00;;;;;12.04;100.00;102857.44;5078817;28;45752;-89
2024/02/20 04:35:49;;;;;;;;;0.00;0.00;;;;;12.05;100.00;102859.16;5078230;28;52152;-89
2024/02/20 04:38:14;;;;;;;;;0.00;0.00;;;;;12.04;100.00;102866.13;5078535;28;45435;-89
2024/02/20 04:40:39;;;;;;;;;0.00;0.00;;;;;12.06;100.00;102866.97;5078476;28;45464;-88
2024/02/20 04:43:06;;;;;;;;;0.00;0.00;;;;;12.03;100.00;102860.91;5082192;27;45273;-88
2024/02/20 04:45:31;;;;;;;;;0.00;0.00;;;;;12.05;100.00;102872.19;5078768;28;45187;-89
2024/02/20 04:47:56;;;;;;;;;0.00;0.00;;;;;12.05;100.00;102873.06;5079817;28;48501;-90
2024/02/20 04:50:22;;;;;;;;;0.00;0.00;;;;;12.06;100.00;102874.81;5079817;27;45281;-89
2024/02/20 04:52:47;;;;;;;;;0.00;0.00;;;;;12.01;100.00;102868.72;5080178;27;45303;-89
2024/02/20 04:55:13;;;;;;;;;0.00;0.00;;;;;12.06;100.00;102874.81;5079675;28;45532;-89
2024/02/20 04:57:38;;;;;;;;;0.00;0.00;;;;;12.08;100.00;102877.44;5077994;28;47027;-89
2024/02/20 05:00:10;;;;;;;;;0.00;0.00;;;;;12.08;100.00;102877.44;5061198;28;45699;-89
2024/02/20 05:02:37;;;;;;;;;0.00;0.00;;;;;12.03;100.00;102872.19;5078610;27;45231;-89
2024/02/20 05:05:02;;;;;;;;;1.00;1.00;;;;;12.06;100.00;102887.88;5095081;27;45616;-89
2024/02/20 05:07:28;;;;;;;;;0.00;0.00;;;;;12.05;100.00;102877.41;5077665;28;45368;-89
2024/02/20 05:09:53;;;;;;;;;0.00;0.00;;;;;12.06;100.00;102879.19;5078143;27;45708;-89
2024/02/20 05:12:19;;;;;;;;;0.00;0.00;;;;;12.03;100.00;102882.63;5061006;28;45530;-89
2024/02/20 05:14:48;;;;;;;;;0.00;0.00;;;;;12.02;100.00;102878.31;5077970;27;45441;-89
2024/02/20 05:17:14;;;;;;;;;0.00;0.00;;;;;12.01;100.00;102884.38;5078815;28;45505;-89
2024/02/20 05:19:39;;;;;;;;;0.00;0.00;;;;;11.96;100.00;102870.47;5078351;28;45287;-89
2024/02/20 05:22:06;;;;;;;;;0.00;0.00;;;;;11.95;100.00;102877.44;5077952;28;62673;-89
2024/02/20 05:24:34;;;;;;;;;3.00;3.00;;;;;11.93;100.00;102880.91;5062018;28;45422;-89
2024/02/20 05:27:02;;;;;;;;;0.00;0.00;;;;;11.86;100.00;102874.78;5077863;27;47296;-89
2024/02/20 05:29:29;;;;;;;;;0.00;0.00;;;;;11.89;100.00;102890.47;5077847;28;45412;-89
2024/02/20 05:31:56;;;;;;;;;0.00;0.00;;;;;11.90;100.00;102887.00;5078448;27;45256;-89
2024/02/20 05:34:22;;;;;;;;;0.00;0.00;;;;;11.85;100.00;102882.63;5078897;27;45166;-89
2024/02/20 05:36:47;;;;;;;;;0.00;0.00;;;;;11.87;100.00;102894.81;5077225;28;50276;-89
2024/02/20 05:39:12;;;;;;;;;1.00;1.00;;;;;11.81;100.00;102889.56;5077276;28;61786;-89
2024/02/20 05:41:38;;;;;;;;;0.00;0.00;;;;;11.81;100.00;102886.97;5077878;28;45664;-89
2024/02/20 05:44:03;;;;;;;;;0.00;0.00;;;;;11.80;100.00;102891.31;5060597;28;60730;-88
2024/02/20 05:46:30;;;;;;;;;0.25;0.25;;;;;11.73;100.00;102888.72;5077191;28;46185;-89
2024/02/20 05:48:56;;;;;;;;;0.00;0.00;;;;;11.74;100.00;102893.06;5079057;27;45482;-88
2024/02/20 05:51:23;;;;;;;;;0.00;0.00;;;;;11.74;100.00;102895.69;5078971;27;45426;-88
2024/02/20 05:53:48;;;;;;;;;0.00;0.00;;;;;11.73;100.00;102894.78;5078455;27;45351;-88
2024/02/20 05:56:14;;;;;;;;;0.00;0.00;;;;;11.75;100.00;102900.88;5094508;27;48118;-89
2024/02/20 05:58:39;;;;;;;;;0.00;0.00;;;;;11.72;100.00;102894.78;5077290;28;45279;-88
2024/02/20 06:01:08;;;;;;;;;0.00;0.00;;;;;11.73;100.00;102907.84;5076738;28;49310;-88
2024/02/20 06:03:34;;;;;;;;;0.00;0.00;;;;;11.66;100.00;102906.09;5077221;28;45367;-88
2024/02/20 06:05:59;;;;;;;;;0.00;0.00;;;;;11.62;100.00;102891.31;5077060;28;46168;-88
2024/02/20 06:08:26;;;;;;;;;0.00;0.00;;;;;11.70;100.00;102909.56;5060072;28;49458;-88
2024/02/20 06:10:51;;;;;;;;;0.00;0.00;;;;;11.66;100.00;102911.31;5077556;28;45317;-88
2024/02/20 06:13:17;;;;;;;;;0.00;0.00;;;;;11.68;100.00;102922.63;5077486;28;45756;-89
2024/02/20 06:15:42;;;;;;;;;0.00;0.00;;;;;11.61;100.00;102911.31;5076761;28;45950;-89
2024/02/20 06:18:07;;;;;;;;;0.00;0.00;;;;;11.65;100.00;102916.53;5079253;28;45354;-88
2024/02/20 06:20:33;;;;;;;;;0.00;0.00;;;;;11.66;100.00;102916.50;5081982;27;45257;-89
2024/02/20 06:22:59;;;;;;;;;0.00;0.00;;;;;11.61;100.00;102910.44;5080673;28;45508;-89
2024/02/20 06:25:27;;;;;;;;;0.00;0.00;;;;;11.68;100.00;102921.75;5080126;28;45597;-88
2024/02/20 06:27:54;;;;;;;;;0.00;0.00;;;;;11.57;100.00;102914.78;5080971;27;45240;-88
2024/02/20 06:30:21;;;;;;;;;0.00;0.00;;;;;11.57;100.00;102925.22;5082090;28;45315;-89
2024/02/20 06:32:47;;;;;;;;;0.00;0.00;;;;;11.57;100.00;102924.31;5079534;28;45403;-88
2024/02/20 06:35:12;;;;;;;;;0.00;0.00;;;;;11.56;100.00;102930.44;5079522;28;45436;-89
2024/02/20 06:37:38;;;;;;;;;0.00;0.00;;;;;11.51;100.00;102921.72;5062967;28;45308;-89
2024/02/20 06:40:04;;;;;;;;;0.00;0.00;;;;;11.56;100.00;102926.06;5079840;28;45296;-86
2024/02/20 06:42:30;;;;;;;;;0.00;0.00;;;;;11.60;100.00;102937.38;5076746;28;45241;-88
2024/02/20 06:44:56;;;;;;;;;0.00;0.00;;;;;11.57;100.00;102919.09;5076645;28;46044;-88
2024/02/20 06:47:22;;;;;;;;;0.00;0.00;;;;;11.61;100.00;102926.97;5076634;28;45349;-88
2024/02/20 06:49:47;;;;;;;;;0.00;0.00;;;;;11.58;100.00;102928.69;5053349;28;46264;-87
2024/02/20 06:52:12;;;;;;;;;0.00;0.00;;;;;11.52;100.00;102924.34;5038904;28;61187;-88
2024/02/20 06:54:38;;;;;;;;;0.00;0.00;;;;;11.52;100.00;102923.47;5076298;28;47210;-88
2024/02/20 06:57:04;;;;;;;;;0.00;0.00;;;;;11.52;100.00;102924.34;5076044;28;45240;-87
2024/02/20 06:59:29;;;;;;;;;0.00;0.00;;;;;11.56;100.00;102925.22;5077632;27;45439;-87
2024/02/20 07:01:55;;;;;;;;;0.00;0.00;;;;;11.56;100.00;102928.69;5076267;28;51489;-87
2024/02/20 07:04:20;;;;;;;;;0.00;0.00;;;;;11.59;100.00;102927.84;5076093;28;45980;-87
2024/02/20 07:06:46;;;;;;;;;0.00;0.00;;;;;11.62;100.00;102933.03;5092923;27;45456;-87
2024/02/20 07:09:11;;;;;;;;;0.00;0.00;;;;;11.66;100.00;102940.00;5075270;27;60943;-88
2024/02/20 07:11:36;;;;;;;;;0.00;0.00;;;;;11.66;100.00;102944.34;5075642;28;45488;-88
2024/02/20 07:14:02;;;;;;;;;0.00;0.00;;;;;11.61;100.00;102942.63;5077246;28;47077;-88
2024/02/20 07:16:27;;;;;;;;;0.00;0.00;;;;;11.63;100.00;102942.63;5079518;27;45299;-89
2024/02/20 07:18:52;;;;;;;;;0.00;0.00;;;;;11.58;100.00;102940.00;5079367;27;45477;-88
2024/02/20 07:21:18;;;;;;;;;0.00;0.00;;;;;11.61;100.00;102941.75;5077633;28;45664;-87
2024/02/20 07:23:43;;;;;;;;;0.00;0.00;;;;;11.66;100.00;102949.56;5077484;28;48085;-89
2024/02/20 07:26:09;;;;;;;;;0.00;0.00;;;;;11.67;100.00;102948.72;5077930;27;45338;-87
2024/02/20 07:28:36;;;;;;;;;0.00;0.00;;;;;11.73;100.00;102956.53;5081034;28;45696;-87
2024/02/20 07:31:02;;;;;;;;;0.00;0.00;;;;;11.70;100.00;102952.19;5080130;27;45451;-85
2024/02/20 07:33:28;;;;;;;;;0.00;0.00;;;;;11.65;100.00;102947.84;5091726;27;45567;-84
2024/02/20 07:35:53;;;;;;;;;0.00;0.00;;;;;11.59;100.00;102938.28;5058422;28;70457;-87
2024/02/20 07:38:18;;;;;;;;;0.00;0.00;;;;;11.63;100.00;102945.22;5058416;28;52197;-86
2024/02/20 07:40:44;;;;;;;;;0.00;0.00;;;;;11.66;100.00;102941.75;5057757;28;65097;-86
2024/02/20 07:43:10;;;;;;;;;0.00;0.00;;;;;11.73;100.00;102948.72;5059837;28;47248;-87
2024/02/20 07:45:35;;;;;;;;;0.00;0.00;;;;;11.80;100.00;102960.91;5061877;28;48490;-88
2024/02/20 07:48:00;;;;;;;;;0.00;0.00;;;;;11.82;100.00;102949.59;5063337;28;45328;-86
2024/02/20 07:50:26;;;;;;;;;0.00;0.00;;;;;11.82;100.00;102949.59;5061428;28;67588;-84
2024/02/20 07:52:51;;;;;;;;;0.00;0.00;;;;;11.83;100.00;102953.09;5078244;28;73080;-84
2024/02/20 07:55:17;;;;;;;;;4.00;4.00;;;;;11.85;100.00;102959.19;5078308;28;45396;-85
2024/02/20 07:57:43;;;;;;;;;0.00;0.00;;;;;11.82;100.00;102957.41;5077797;28;45493;-84
2024/02/20 08:00:11;;;;;;;;;0.00;0.00;;;;;11.85;100.00;102959.19;5079100;27;45331;-85
2024/02/20 08:02:37;;;;;;;;;0.00;0.00;;;;;11.88;100.00;102964.38;5079195;27;46593;-85
2024/02/20 08:05:04;;;;;;;;;0.00;0.00;;;;;11.89;100.00;102960.06;5078561;28;45458;-85
2024/02/20 08:07:29;;;;;;;;;0.00;0.00;;;;;11.88;100.00;102960.91;5078564;28;45437;-85
2024/02/20 08:09:55;;;;;;;;;0.00;0.00;;;;;11.91;100.00;102960.97;5078210;28;64214;-86
2024/02/20 08:12:22;;;;;;;;;0.00;0.00;;;;;11.89;100.00;102965.28;5080338;27;46459;-85
2024/02/20 08:14:47;;;;;;;;;1.00;1.00;;;;;11.85;100.00;102959.19;5080699;27;45351;-85
2024/02/20 08:17:12;;;;;;;;;0.00;0.00;;;;;11.85;100.00;102953.06;5079936;27;45477;-86
2024/02/20 08:19:39;;;;;;;;;0.00;0.00;;;;;11.86;100.00;102957.44;5112475;27;45386;-86
2024/02/20 08:22:04;;;;;;;;;0.00;0.00;;;;;11.90;100.00;102965.28;5107392;27;46315;-86
2024/02/20 08:24:29;;;;;;;;;0.00;0.00;;;;;11.98;100.00;102970.53;5082939;27;45478;-86
2024/02/20 08:26:57;;;;;;;;;0.00;0.00;;;;;12.00;100.00;102964.44;5077245;28;70442;-85
2024/02/20 08:29:24;;;;;;;;;0.00;0.00;;;;;12.03;100.00;102962.69;5071531;28;45361;-85
2024/02/20 08:31:49;;;;;;;;;0.00;0.00;;;;;11.97;100.00;102961.81;5082997;27;46576;-86
2024/02/20 08:34:14;;;;;;;;;0.00;0.00;;;;;11.93;100.00;102954.84;5115390;27;45434;-86
2024/02/20 08:36:40;;;;;;;;;0.00;0.00;;;;;11.95;100.00;102958.34;5132263;27;63209;-85
2024/02/20 08:39:06;;;;;;;;;0.00;0.00;;;;;12.04;100.00;102960.09;5099950;27;45820;-85
2024/02/20 08:41:32;;;;;;;;;0.00;0.00;;;;;12.05;100.00;102966.19;5077624;28;46537;-85
2024/02/20 08:43:58;;;;;;;;;0.00;0.00;;;;;12.12;100.00;102967.94;5087562;27;45406;-85
2024/02/20 08:46:23;;;;;;;;;0.00;0.00;;;;;12.14;100.00;102958.34;5081314;27;45278;-86
2024/02/20 08:48:51;;;;;;;;;0.00;0.00;;;;;12.17;100.00;102961.81;5115770;27;45300;-85
2024/02/20 08:51:17;;;;;;;;;0.00;0.00;;;;;12.17;100.00;102954.00;5080636;27;45353;-86
2024/02/20 08:53:43;;;;;;;;;0.00;0.00;;;;;12.17;100.00;102947.91;5074786;27;45782;-85
2024/02/20 08:56:11;;;;;;;;;0.00;0.00;;;;;12.13;100.00;102940.97;5106630;27;45374;-85
2024/02/20 08:58:36;;;;;;;;;0.00;0.00;;;;;12.26;100.00;102949.63;5088018;27;45369;-86
2024/02/20 09:01:02;;;;;;;;;0.00;0.00;;;;;12.32;100.00;102952.25;5114932;27;47196;-85
2024/02/20 09:03:29;;;;;;;;;0.00;0.00;;;;;12.34;100.00;102959.22;5080991;27;45930;-85
2024/02/20 09:05:58;;;;;;;;;0.00;0.00;;;;;12.36;100.00;102949.63;5132009;27;45316;-86
2024/02/20 09:08:23;;;;;;;;;0.00;0.00;;;;;12.34;100.00;102953.97;5097974;27;45539;-86
2024/02/20 09:10:48;;;;;;;;;0.00;0.00;;;;;12.32;100.00;102958.34;5108668;27;67856;-85
2024/02/20 09:13:14;;;;;;;;;0.00;0.00;;;;;12.34;100.00;102969.66;5076131;28;72710;-86
2024/02/20 09:15:39;;;;;;;;;0.00;0.00;;;;;12.34;100.00;102966.19;5077248;28;45495;-85
2024/02/20 09:18:05;;;;;;;;;0.00;0.00;;;;;12.31;100.00;102961.84;5078548;27;45526;-85
2024/02/20 09:20:30;;;;;;;;;0.00;0.00;;;;;12.33;100.00;102967.03;5094481;27;57359;-85
2024/02/20 09:22:56;;;;;;;;;0.00;0.00;;;;;12.28;100.00;102969.66;5082935;27;69165;-84
2024/02/20 09:25:22;;;;;;;;;0.00;0.00;;;;;12.36;100.00;102972.28;5083278;27;45572;-85
2024/02/20 09:27:47;;;;;;;;;0.00;0.00;;;;;12.27;100.00;102980.97;5077999;28;45253;-85
2024/02/20 09:30:13;;;;;;;;;0.00;0.00;;;;;12.31;100.00;102987.97;5077262;28;46094;-85
2024/02/20 09:32:40;;;;;;;;;0.00;0.00;;;;;12.34;100.00;102987.06;5081762;27;45343;-85
2024/02/20 09:35:06;;;;;;;;;0.00;0.00;;;;;12.33;100.00;102985.31;5077204;28;45269;-85
2024/02/20 09:37:31;;;;;;;;;0.00;0.00;;;;;12.33;100.00;102986.22;5083722;27;45417;-85
2024/02/20 09:39:57;;;;;;;;;0.00;0.00;;;;;12.44;100.00;102995.75;5076160;28;46363;-85
2024/02/20 09:42:27;;;;;;;;;0.00;0.00;;;;;12.43;100.00;102994.91;5077828;28;45582;-85
2024/02/20 09:44:56;;;;;;;;;0.00;0.00;;;;;12.47;100.00;102990.56;5093585;27;45332;-85
2024/02/20 09:47:22;;;;;;;;;0.00;0.00;;;;;12.49;100.00;102999.25;5077608;28;45315;-85
2024/02/20 09:49:50;;;;;;;;;0.00;0.00;;;;;12.43;100.00;103002.75;5071952;28;45274;-85
2024/02/20 09:52:16;;;;;;;;;0.00;0.00;;;;;12.40;100.00;103000.97;5077034;27;45320;-84
2024/02/20 09:54:44;;;;;;;;;0.00;0.00;;;;;12.36;100.00;103001.84;5070637;28;45692;-84
2024/02/20 09:57:09;;;;;;;;;0.00;0.00;;;;;12.38;100.00;102999.25;5076173;28;45589;-84
2024/02/20 09:59:35;;;;;;;;;0.00;0.00;;;;;12.33;100.00;102993.16;5072051;28;45446;-84
2024/02/20 10:02:02;;;;;;;;;0.00;0.00;;;;;12.27;100.00;103001.84;5068542;28;62999;-85
2024/02/20 10:04:32;;;;;;;;;0.00;0.00;;;;;12.23;100.00;103010.56;5075197;28;45394;-84
2024/02/20 10:07:03;;;;;;;;;0.25;0.25;;;;;12.29;100.00;103017.53;5076111;28;45601;-85
2024/02/20 10:09:30;;;;;;;;;0.00;0.00;;;;;12.35;100.00;103001.84;5076883;27;45426;-84
2024/02/20 10:11:56;;;;;;;;;0.00;0.00;;;;;12.36;100.00;103003.63;5076040;28;45782;-85
2024/02/20 10:14:27;;;;;;;;;1.00;1.00;;;;;12.36;100.00;103012.31;5074462;28;68802;-84
2024/02/20 10:17:00;;;;;;;;;0.00;0.00;;;;;12.43;100.00;102999.28;5071868;28;45341;-84
2024/02/20 10:19:26;;;;;;;;;0.00;0.00;;;;;12.49;100.00;103002.72;5056644;28;46594;-84
2024/02/20 10:21:51;;;;;;;;;0.00;0.00;;;;;12.46;100.00;102992.31;5069938;27;45469;-85
2024/02/20 10:24:17;;;;;;;;;0.00;0.00;;;;;12.50;100.00;102990.53;5098030;27;45281;-85
2024/02/20 10:26:46;;;;;;;;;0.00;0.00;;;;;12.57;100.00;102981.81;5096778;27;70101;-85
2024/02/20 10:29:13;;;;;;;;;0.00;0.00;;;;;12.60;100.00;102976.59;5096310;27;46192;-85
2024/02/20 10:31:39;;;;;;;;;0.00;0.00;;;;;12.67;100.00;102978.34;5096612;27;45476;-85
2024/02/20 10:34:05;;;;;;;;;0.00;0.00;;;;;12.65;100.00;102964.41;5097126;27;45423;-85
2024/02/20 10:36:30;;;;;;;;;0.00;0.00;;;;;12.67;100.00;102967.88;5096958;27;45276;-87
2024/02/20 10:39:06;;;;;;;;;0.00;0.00;;;;;12.67;100.00;102954.81;5081928;27;47766;-86
2024/02/20 10:41:32;;;;;;;;;0.00;0.00;;;;;12.69;100.00;102940.00;5077086;28;45655;-87
2024/02/20 10:43:58;;;;;;;;;1.00;1.00;;;;;12.68;100.00;102950.44;5077841;28;45336;-87
2024/02/20 10:46:27;;;;;;;;;0.00;0.00;;;;;12.82;100.00;102960.88;5061061;28;45248;-85
2024/02/20 10:48:58;;;;;;;;;0.00;0.00;;;;;12.87;100.00;102956.47;5081586;28;45493;-86
2024/02/20 10:51:26;;;;;;;;;0.00;0.00;;;;;12.81;100.00;102940.84;5057508;28;45451;-83
2024/02/20 10:53:53;;;;;;;;;3.00;3.00;;;;;12.79;100.00;102931.25;5056245;28;45593;-83
2024/02/20 10:56:19;;;;;;;;;0.00;0.00;;;;;12.83;100.00;102926.00;5055024;28;45409;-84
2024/02/20 10:58:47;;;;;;;;;0.00;0.00;;;;;12.77;100.00;102919.91;5066077;28;64794;-86
2024/02/20 11:01:13;;;;;;;;;0.00;0.00;;;;;12.77;100.00;102934.75;5060421;28;45289;-87
2024/02/20 11:03:39;;;;;;;;;3.00;3.00;;;;;12.75;100.00;102937.34;5081612;28;45428;-86
2024/02/20 11:06:05;;;;;;;;;0.00;0.00;;;;;12.74;100.00;102924.28;5079346;28;45547;-85
2024/02/20 11:08:31;;;;;;;;;1.00;1.00;;;;;12.71;100.00;102929.53;5078694;28;46886;-86
2024/02/20 11:11:07;;;;;;;;;0.00;0.00;;;;;12.72;100.00;102921.72;5078877;28;45450;-85